sensor_id;sensor_type;location;lat;lon;timestamp;temperature;humidity
22114;DHT22;11223;49.968;9.062;2023-04-01T00:00:23;9.20;99.90
22114;DHT22;11223;49.968;9.062;2023-04-01T00:02:49;9.20;99.90
22114;DHT22;11223;49.968;9.062;2023-04-01T00:05:14;9.10;99.90
22114;DHT22;11223;49.968;9.062;2023-04-01T00:07:41;9.10;99.90
22114;DHT22;11223;49.968;9.062;2023-04-01T00:10:09;9.10;99.90
22114;DHT22;11223;49.968;9.062;2023-04-01T00:12:35;9.20;99.90
22114;DHT22;11223;49.968;9.062;2023-04-01T00:15:02;9.20;99.90
22114;DHT22;11223;49.968;9.062;2023-04-01T00:17:28;9.20;99.90
22114;DHT22;11223;49.968;9.062;2023-04-01T00:19:57;9.10;99.90
22114;DHT22;11223;49.968;9.062;2023-04-01T00:22:24;9.20;99.90
22114;DHT22;11223;49.968;9.062;2023-04-01T00:24:50;9.20;99.90
22114;DHT22;11223;49.968;9.062;2023-04-01T00:27:15;9.20;99.90
22114;DHT22;11223;49.968;9.062;2023-04-01T00:29:42;9.20;99.90
22114;DHT22;11223;49.968;9.062;2023-04-01T00:32:08;9.20;99.90
22114;DHT22;11223;49.968;9.062;2023-04-01T00:34:34;9.20;99.90
22114;DHT22;11223;49.968;9.062;2023-04-01T00:37:00;9.20;99.90
22114;DHT22;11223;49.968;9.062;2023-04-01T00:39:28;9.20;99.90
22114;DHT22;11223;49.968;9.062;2023-04-01T00:41:53;9.30;99.90
22114;DHT22;11223;49.968;9.062;2023-04-01T00:44:23;9.30;99.90
22114;DHT22;11223;49.968;9.062;2023-04-01T00:46:50;9.30;99.90
22114;DHT22;11223;49.968;9.062;2023-04-01T00:49:17;9.30;99.90
22114;DHT22;11223;49.968;9.062;2023-04-01T00:51:47;9.40;99.90
22114;DHT22;11223;49.968;9.062;2023-04-01T00:54:14;9.40;99.90
22114;DHT22;11223;49.968;9.062;2023-04-01T00:56:53;9.40;99.90
22114;DHT22;11223;49.968;9.062;2023-04-01T00:59:27;9.40;99.90
22114;DHT22;11223;49.968;9.062;2023-04-01T01:01:55;9.40;99.90
22114;DHT22;11223;49.968;9.062;2023-04-01T01:04:31;9.40;99.90
22114;DHT22;11223;49.968;9.062;2023-04-01T01:12:45;9.40;99.90
22114;DHT22;11223;49.968;9.062;2023-04-01T01:15:21;9.40;99.90
22114;DHT22;11223;49.968;9.062;2023-04-01T01:18:26;9.50;99.90
22114;DHT22;11223;49.968;9.062;2023-04-01T01:26:51;9.50;99.90
22114;DHT22;11223;49.968;9.062;2023-04-01T01:29:45;9.50;99.90
22114;DHT22;11223;49.968;9.062;2023-04-01T01:35:16;9.40;99.90
22114;DHT22;11223;49.968;9.062;2023-04-01T01:37:45;9.40;99.90
22114;DHT22;11223;49.968;9.062;2023-04-01T01:40:12;9.40;99.90
22114;DHT22;11223;49.968;9.062;2023-04-01T01:42:47;9.40;99.90
22114;DHT22;11223;49.968;9.062;2023-04-01T01:45:14;9.40;99.90
22114;DHT22;11223;49.968;9.062;2023-04-01T01:47:43;9.50;99.90
22114;DHT22;11223;49.968;9.062;2023-04-01T01:50:11;9.50;99.90
22114;DHT22;11223;49.968;9.062;2023-04-01T01:52:37;9.50;99.90
22114;DHT22;11223;49.968;9.062;2023-04-01T01:55:22;9.50;99.90
22114;DHT22;11223;49.968;9.062;2023-04-01T01:57:48;9.50;99.90
22114;DHT22;11223;49.968;9.062;2023-04-01T02:00:15;9.50;99.90
22114;DHT22;11223;49.968;9.062;2023-04-01T02:02:44;9.50;99.90
22114;DHT22;11223;49.968;9.062;2023-04-01T02:05:14;9.40;99.90
22114;DHT22;11223;49.968;9.062;2023-04-01T02:07:44;9.50;99.90
22114;DHT22;11223;49.968;9.062;2023-04-01T02:10:12;9.50;99.90
22114;DHT22;11223;49.968;9.062;2023-04-01T02:12:38;9.50;99.90
22114;DHT22;11223;49.968;9.062;2023-04-01T02:15:09;9.60;99.90
22114;DHT22;11223;49.968;9.062;2023-04-01T02:17:39;9.50;99.90
22114;DHT22;11223;49.968;9.062;2023-04-01T02:20:11;9.60;99.90
22114;DHT22;11223;49.968;9.062;2023-04-01T02:22:44;9.60;99.90
22114;DHT22;11223;49.968;9.062;2023-04-01T02:25:20;9.60;99.90
22114;DHT22;11223;49.968;9.062;2023-04-01T02:27:47;9.60;99.90
22114;DHT22;11223;49.968;9.062;2023-04-01T02:30:14;9.60;99.90
22114;DHT22;11223;49.968;9.062;2023-04-01T02:32:40;9.60;99.90
22114;DHT22;11223;49.968;9.062;2023-04-01T02:35:13;9.60;99.90
22114;DHT22;11223;49.968;9.062;2023-04-01T02:37:39;9.60;99.90
22114;DHT22;11223;49.968;9.062;2023-04-01T02:40:11;9.70;99.90
22114;DHT22;11223;49.968;9.062;2023-04-01T02:42:36;9.60;99.90
22114;DHT22;11223;49.968;9.062;2023-04-01T02:45:03;9.60;99.90
22114;DHT22;11223;49.968;9.062;2023-04-01T02:47:28;9.70;99.90
22114;DHT22;11223;49.968;9.062;2023-04-01T02:49:54;9.70;99.90
22114;DHT22;11223;49.968;9.062;2023-04-01T02:52:25;9.70;99.90
22114;DHT22;11223;49.968;9.062;2023-04-01T02:54:51;9.70;99.90
22114;DHT22;11223;49.968;9.062;2023-04-01T02:57:16;9.70;99.90
22114;DHT22;11223;49.968;9.062;2023-04-01T02:59:42;9.70;99.90
22114;DHT22;11223;49.968;9.062;2023-04-01T03:02:07;9.70;99.90
22114;DHT22;11223;49.968;9.062;2023-04-01T03:04:33;9.70;99.90
22114;DHT22;11223;49.968;9.062;2023-04-01T03:06:59;9.70;99.90
22114;DHT22;11223;49.968;9.062;2023-04-01T03:09:24;9.70;99.90
22114;DHT22;11223;49.968;9.062;2023-04-01T03:11:50;9.70;99.90
22114;DHT22;11223;49.968;9.062;2023-04-01T03:14:16;9.70;99.90
22114;DHT22;11223;49.968;9.062;2023-04-01T03:16:41;9.70;99.90
22114;DHT22;11223;49.968;9.062;2023-04-01T03:19:07;9.70;99.90
22114;DHT22;11223;49.968;9.062;2023-04-01T03:21:32;9.70;99.90
22114;DHT22;11223;49.968;9.062;2023-04-01T03:23:58;9.70;99.90
22114;DHT22;11223;49.968;9.062;2023-04-01T03:26:24;9.70;99.90
22114;DHT22;11223;49.968;9.062;2023-04-01T03:28:49;9.70;99.90
22114;DHT22;11223;49.968;9.062;2023-04-01T03:31:15;9.70;99.90
22114;DHT22;11223;49.968;9.062;2023-04-01T03:33:42;9.70;99.90
22114;DHT22;11223;49.968;9.062;2023-04-01T03:36:07;9.70;99.90
22114;DHT22;11223;49.968;9.062;2023-04-01T03:38:34;9.70;99.90
22114;DHT22;11223;49.968;9.062;2023-04-01T03:41:00;9.60;99.90
22114;DHT22;11223;49.968;9.062;2023-04-01T03:43:26;9.60;99.90
22114;DHT22;11223;49.968;9.062;2023-04-01T03:45:52;9.60;99.90
22114;DHT22;11223;49.968;9.062;2023-04-01T03:48:19;9.60;99.90
22114;DHT22;11223;49.968;9.062;2023-04-01T03:50:45;9.60;99.90
22114;DHT22;11223;49.968;9.062;2023-04-01T03:53:11;9.70;99.90
22114;DHT22;11223;49.968;9.062;2023-04-01T03:55:37;9.70;99.90
22114;DHT22;11223;49.968;9.062;2023-04-01T03:58:04;9.70;99.90
22114;DHT22;11223;49.968;9.062;2023-04-01T04:00:30;9.60;99.90
22114;DHT22;11223;49.968;9.062;2023-04-01T04:02:56;9.60;99.90
22114;DHT22;11223;49.968;9.062;2023-04-01T04:05:23;9.60;99.90
22114;DHT22;11223;49.968;9.062;2023-04-01T04:07:49;9.60;99.90
22114;DHT22;11223;49.968;9.062;2023-04-01T04:10:15;9.60;99.90
22114;DHT22;11223;49.968;9.062;2023-04-01T04:12:41;9.60;99.90
22114;DHT22;11223;49.968;9.062;2023-04-01T04:15:07;9.60;99.90
22114;DHT22;11223;49.968;9.062;2023-04-01T04:17:33;9.60;99.90
22114;DHT22;11223;49.968;9.062;2023-04-01T04:19:59;9.50;99.90
22114;DHT22;11223;49.968;9.062;2023-04-01T04:22:25;9.60;99.90
22114;DHT22;11223;49.968;9.062;2023-04-01T04:24:51;9.60;99.90
22114;DHT22;11223;49.968;9.062;2023-04-01T04:27:16;9.60;99.90
22114;DHT22;11223;49.968;9.062;2023-04-01T04:29:42;9.70;99.90
22114;DHT22;11223;49.968;9.062;2023-04-01T04:32:08;9.70;99.90
22114;DHT22;11223;49.968;9.062;2023-04-01T04:34:33;9.70;99.90
22114;DHT22;11223;49.968;9.062;2023-04-01T04:36:59;9.70;99.90
22114;DHT22;11223;49.968;9.062;2023-04-01T04:39:25;9.70;99.90
22114;DHT22;11223;49.968;9.062;2023-04-01T04:41:50;9.70;99.90
22114;DHT22;11223;49.968;9.062;2023-04-01T04:44:16;9.70;99.90
22114;DHT22;11223;49.968;9.062;2023-04-01T04:46:42;9.70;99.90
22114;DHT22;11223;49.968;9.062;2023-04-01T04:49:07;9.70;99.90
22114;DHT22;11223;49.968;9.062;2023-04-01T04:51:33;9.70;99.90
22114;DHT22;11223;49.968;9.062;2023-04-01T04:54:04;9.70;99.90
22114;DHT22;11223;49.968;9.062;2023-04-01T04:56:29;9.60;99.90
22114;DHT22;11223;49.968;9.062;2023-04-01T04:58:56;9.60;99.90
22114;DHT22;11223;49.968;9.062;2023-04-01T05:01:22;9.60;99.90
22114;DHT22;11223;49.968;9.062;2023-04-01T05:03:48;9.60;99.90
22114;DHT22;11223;49.968;9.062;2023-04-01T05:06:15;9.60;99.90
22114;DHT22;11223;49.968;9.062;2023-04-01T05:08:42;9.60;99.90
22114;DHT22;11223;49.968;9.062;2023-04-01T05:11:13;9.60;99.90
22114;DHT22;11223;49.968;9.062;2023-04-01T05:13:39;9.70;99.90
22114;DHT22;11223;49.968;9.062;2023-04-01T05:16:11;9.70;99.90
22114;DHT22;11223;49.968;9.062;2023-04-01T05:18:37;9.70;99.90
22114;DHT22;11223;49.968;9.062;2023-04-01T05:21:03;9.70;99.90
22114;DHT22;11223;49.968;9.062;2023-04-01T05:23:31;9.80;99.90
22114;DHT22;11223;49.968;9.062;2023-04-01T05:25:57;9.80;99.90
22114;DHT22;11223;49.968;9.062;2023-04-01T05:28:22;9.90;99.90
22114;DHT22;11223;49.968;9.062;2023-04-01T05:30:48;9.90;99.90
22114;DHT22;11223;49.968;9.062;2023-04-01T05:33:14;9.80;99.90
22114;DHT22;11223;49.968;9.062;2023-04-01T05:35:40;9.80;99.90
22114;DHT22;11223;49.968;9.062;2023-04-01T05:38:06;9.80;99.90
22114;DHT22;11223;49.968;9.062;2023-04-01T05:40:31;9.80;99.90
22114;DHT22;11223;49.968;9.062;2023-04-01T05:42:58;9.80;99.90
22114;DHT22;11223;49.968;9.062;2023-04-01T05:45:24;9.80;99.90
22114;DHT22;11223;49.968;9.062;2023-04-01T05:47:50;9.80;99.90
22114;DHT22;11223;49.968;9.062;2023-04-01T05:50:15;9.70;99.90
22114;DHT22;11223;49.968;9.062;2023-04-01T05:52:41;9.70;99.90
22114;DHT22;11223;49.968;9.062;2023-04-01T05:55:07;9.70;99.90
22114;DHT22;11223;49.968;9.062;2023-04-01T05:57:33;9.70;99.90
22114;DHT22;11223;49.968;9.062;2023-04-01T05:59:59;9.60;99.90
22114;DHT22;11223;49.968;9.062;2023-04-01T06:02:25;9.60;99.90
22114;DHT22;11223;49.968;9.062;2023-04-01T06:05:00;9.50;99.90
22114;DHT22;11223;49.968;9.062;2023-04-01T06:07:27;9.50;99.90
22114;DHT22;11223;49.968;9.062;2023-04-01T06:09:54;9.50;99.90
22114;DHT22;11223;49.968;9.062;2023-04-01T06:12:43;9.50;99.90
22114;DHT22;11223;49.968;9.062;2023-04-01T06:20:54;9.40;99.90
22114;DHT22;11223;49.968;9.062;2023-04-01T06:40:20;9.20;99.90
22114;DHT22;11223;49.968;9.062;2023-04-01T06:43:17;9.20;99.90
22114;DHT22;11223;49.968;9.062;2023-04-01T06:45:57;9.30;99.90
22114;DHT22;11223;49.968;9.062;2023-04-01T06:56:28;9.30;99.90
22114;DHT22;11223;49.968;9.062;2023-04-01T06:59:05;9.30;99.90
22114;DHT22;11223;49.968;9.062;2023-04-01T07:01:37;9.30;99.90
22114;DHT22;11223;49.968;9.062;2023-04-01T07:06:48;9.30;99.90
22114;DHT22;11223;49.968;9.062;2023-04-01T07:09:22;9.30;99.90
22114;DHT22;11223;49.968;9.062;2023-04-01T07:11:50;9.30;99.90
22114;DHT22;11223;49.968;9.062;2023-04-01T07:14:24;9.30;99.90
22114;DHT22;11223;49.968;9.062;2023-04-01T07:17:22;9.40;99.90
22114;DHT22;11223;49.968;9.062;2023-04-01T07:20:05;9.40;99.90
22114;DHT22;11223;49.968;9.062;2023-04-01T07:22:40;9.50;99.90
22114;DHT22;11223;49.968;9.062;2023-04-01T07:25:14;9.50;99.90
22114;DHT22;11223;49.968;9.062;2023-04-01T07:27:42;9.60;99.90
22114;DHT22;11223;49.968;9.062;2023-04-01T07:30:22;9.60;99.90
22114;DHT22;11223;49.968;9.062;2023-04-01T07:33:04;9.70;99.90
22114;DHT22;11223;49.968;9.062;2023-04-01T07:35:57;9.60;99.90
22114;DHT22;11223;49.968;9.062;2023-04-01T07:38:57;9.70;99.90
22114;DHT22;11223;49.968;9.062;2023-04-01T07:41:37;9.70;99.90
22114;DHT22;11223;49.968;9.062;2023-04-01T07:46:59;9.70;99.90
22114;DHT22;11223;49.968;9.062;2023-04-01T07:49:44;9.80;99.90
22114;DHT22;11223;49.968;9.062;2023-04-01T07:55:15;9.90;99.90
22114;DHT22;11223;49.968;9.062;2023-04-01T08:05:50;9.80;99.90
22114;DHT22;11223;49.968;9.062;2023-04-01T08:08:45;9.90;99.90
22114;DHT22;11223;49.968;9.062;2023-04-01T08:16:41;10.30;99.90
22114;DHT22;11223;49.968;9.062;2023-04-01T08:19:43;10.40;99.90
22114;DHT22;11223;49.968;9.062;2023-04-01T08:22:38;10.50;99.90
22114;DHT22;11223;49.968;9.062;2023-04-01T08:25:06;10.50;99.90
22114;DHT22;11223;49.968;9.062;2023-04-01T08:27:39;10.60;99.90
22114;DHT22;11223;49.968;9.062;2023-04-01T08:30:35;10.50;99.90
22114;DHT22;11223;49.968;9.062;2023-04-01T08:33:25;10.60;99.90
22114;DHT22;11223;49.968;9.062;2023-04-01T08:36:16;10.60;99.90
22114;DHT22;11223;49.968;9.062;2023-04-01T08:38:57;10.70;99.90
22114;DHT22;11223;49.968;9.062;2023-04-01T08:41:52;10.70;99.90
22114;DHT22;11223;49.968;9.062;2023-04-01T08:47:34;10.70;99.90
22114;DHT22;11223;49.968;9.062;2023-04-01T08:53:18;10.80;99.90
22114;DHT22;11223;49.968;9.062;2023-04-01T08:56:03;10.80;99.90
22114;DHT22;11223;49.968;9.062;2023-04-01T08:58:54;10.80;99.90
22114;DHT22;11223;49.968;9.062;2023-04-01T09:01:48;10.80;99.90
22114;DHT22;11223;49.968;9.062;2023-04-01T09:04:45;10.80;99.90
22114;DHT22;11223;49.968;9.062;2023-04-01T09:13:10;10.60;99.90
22114;DHT22;11223;49.968;9.062;2023-04-01T09:16:07;10.60;99.90
22114;DHT22;11223;49.968;9.062;2023-04-01T09:22:25;10.70;99.90
22114;DHT22;11223;49.968;9.062;2023-04-01T09:31:09;10.90;99.90
22114;DHT22;11223;49.968;9.062;2023-04-01T09:36:46;11.00;99.90
22114;DHT22;11223;49.968;9.062;2023-04-01T09:44:37;11.40;99.90
22114;DHT22;11223;49.968;9.062;2023-04-01T09:47:33;11.50;99.90
22114;DHT22;11223;49.968;9.062;2023-04-01T09:53:34;11.70;99.90
22114;DHT22;11223;49.968;9.062;2023-04-01T10:13:26;11.80;99.90
22114;DHT22;11223;49.968;9.062;2023-04-01T10:21:29;11.50;99.90
22114;DHT22;11223;49.968;9.062;2023-04-01T10:26:45;11.20;99.90
22114;DHT22;11223;49.968;9.062;2023-04-01T10:34:56;11.30;99.90
22114;DHT22;11223;49.968;9.062;2023-04-01T11:08:54;12.40;99.90
22114;DHT22;11223;49.968;9.062;2023-04-01T11:11:55;12.50;99.90
22114;DHT22;11223;49.968;9.062;2023-04-01T11:17:33;12.40;99.90
22114;DHT22;11223;49.968;9.062;2023-04-01T11:28:18;12.00;99.90
22114;DHT22;11223;49.968;9.062;2023-04-01T11:31:29;11.90;99.90
22114;DHT22;11223;49.968;9.062;2023-04-01T11:34:11;11.80;99.90
22114;DHT22;11223;49.968;9.062;2023-04-01T11:45:06;11.70;99.90
22114;DHT22;11223;49.968;9.062;2023-04-01T11:47:45;11.60;99.90
22114;DHT22;11223;49.968;9.062;2023-04-01T11:53:23;11.60;99.90
22114;DHT22;11223;49.968;9.062;2023-04-01T12:04:58;12.10;99.90
22114;DHT22;11223;49.968;9.062;2023-04-01T12:07:43;12.30;99.90
22114;DHT22;11223;49.968;9.062;2023-04-01T12:11:05;12.40;99.90
22114;DHT22;11223;49.968;9.062;2023-04-01T12:14:08;12.50;99.90
22114;DHT22;11223;49.968;9.062;2023-04-01T12:21:35;12.60;99.90
22114;DHT22;11223;49.968;9.062;2023-04-01T12:32:54;12.70;99.90
22114;DHT22;11223;49.968;9.062;2023-04-01T12:41:14;12.60;99.90
22114;DHT22;11223;49.968;9.062;2023-04-01T12:44:23;12.50;99.90
22114;DHT22;11223;49.968;9.062;2023-04-01T12:49:42;12.50;99.90
22114;DHT22;11223;49.968;9.062;2023-04-01T12:58:19;12.40;99.90
22114;DHT22;11223;49.968;9.062;2023-04-01T13:00:58;12.30;99.90
22114;DHT22;11223;49.968;9.062;2023-04-01T13:06:40;12.20;99.90
22114;DHT22;11223;49.968;9.062;2023-04-01T13:09:36;12.10;99.90
22114;DHT22;11223;49.968;9.062;2023-04-01T13:12:29;12.10;99.90
22114;DHT22;11223;49.968;9.062;2023-04-01T13:15:22;12.10;99.90
22114;DHT22;11223;49.968;9.062;2023-04-01T13:17:53;12.10;99.90
22114;DHT22;11223;49.968;9.062;2023-04-01T13:26:46;12.10;99.90
22114;DHT22;11223;49.968;9.062;2023-04-01T13:29:32;12.10;99.90
22114;DHT22;11223;49.968;9.062;2023-04-01T13:32:40;12.10;99.90
22114;DHT22;11223;49.968;9.062;2023-04-01T13:38:20;12.00;99.90
22114;DHT22;11223;49.968;9.062;2023-04-01T13:41:11;12.00;99.90
22114;DHT22;11223;49.968;9.062;2023-04-01T13:44:27;12.00;99.90
22114;DHT22;11223;49.968;9.062;2023-04-01T13:49:43;11.90;99.90
22114;DHT22;11223;49.968;9.062;2023-04-01T14:00:16;11.70;99.90
22114;DHT22;11223;49.968;9.062;2023-04-01T14:05:47;11.70;99.90
22114;DHT22;11223;49.968;9.062;2023-04-01T14:08:36;11.70;99.90
22114;DHT22;11223;49.968;9.062;2023-04-01T14:11:12;11.70;99.90
22114;DHT22;11223;49.968;9.062;2023-04-01T14:14:09;11.70;99.90
22114;DHT22;11223;49.968;9.062;2023-04-01T14:17:13;11.70;99.90
22114;DHT22;11223;49.968;9.062;2023-04-01T14:22:39;11.80;99.90
22114;DHT22;11223;49.968;9.062;2023-04-01T14:25:33;11.80;99.90
22114;DHT22;11223;49.968;9.062;2023-04-01T14:28:26;11.90;99.90
22114;DHT22;11223;49.968;9.062;2023-04-01T14:31:30;11.90;99.90
22114;DHT22;11223;49.968;9.062;2023-04-01T14:47:53;11.70;99.90
22114;DHT22;11223;49.968;9.062;2023-04-01T14:50:26;11.70;99.90
22114;DHT22;11223;49.968;9.062;2023-04-01T14:53:11;11.70;99.90
22114;DHT22;11223;49.968;9.062;2023-04-01T14:58:12;11.70;99.90
22114;DHT22;11223;49.968;9.062;2023-04-01T15:01:17;11.70;99.90
22114;DHT22;11223;49.968;9.062;2023-04-01T15:04:46;11.70;99.90
22114;DHT22;11223;49.968;9.062;2023-04-01T15:09:41;11.80;99.90
22114;DHT22;11223;49.968;9.062;2023-04-01T15:17:43;11.60;99.90
22114;DHT22;11223;49.968;9.062;2023-04-01T15:20:51;11.50;99.90
22114;DHT22;11223;49.968;9.062;2023-04-01T15:23:27;11.40;99.90
22114;DHT22;11223;49.968;9.062;2023-04-01T15:26:13;11.30;99.90
22114;DHT22;11223;49.968;9.062;2023-04-01T15:28:47;11.10;99.90
22114;DHT22;11223;49.968;9.062;2023-04-01T15:47:38;11.30;99.90
22114;DHT22;11223;49.968;9.062;2023-04-01T15:50:42;11.30;99.90
22114;DHT22;11223;49.968;9.062;2023-04-01T15:55:59;11.40;99.90
22114;DHT22;11223;49.968;9.062;2023-04-01T16:10:06;11.10;99.90
22114;DHT22;11223;49.968;9.062;2023-04-01T16:12:46;11.10;99.90
22114;DHT22;11223;49.968;9.062;2023-04-01T16:15:44;11.00;99.90
22114;DHT22;11223;49.968;9.062;2023-04-01T16:21:00;10.90;99.90
22114;DHT22;11223;49.968;9.062;2023-04-01T16:23:37;10.90;99.90
22114;DHT22;11223;49.968;9.062;2023-04-01T16:26:20;11.00;99.90
22114;DHT22;11223;49.968;9.062;2023-04-01T16:28:53;11.00;99.90
22114;DHT22;11223;49.968;9.062;2023-04-01T16:31:36;11.00;99.90
22114;DHT22;11223;49.968;9.062;2023-04-01T16:34:21;11.00;99.90
22114;DHT22;11223;49.968;9.062;2023-04-01T16:37:00;11.10;99.90
22114;DHT22;11223;49.968;9.062;2023-04-01T16:42:46;11.00;99.90
22114;DHT22;11223;49.968;9.062;2023-04-01T16:45:33;11.00;99.90
22114;DHT22;11223;49.968;9.062;2023-04-01T16:48:17;10.90;99.90
22114;DHT22;11223;49.968;9.062;2023-04-01T16:50:58;10.90;99.90
22114;DHT22;11223;49.968;9.062;2023-04-01T16:53:40;10.90;99.90
22114;DHT22;11223;49.968;9.062;2023-04-01T16:56:23;10.90;99.90
22114;DHT22;11223;49.968;9.062;2023-04-01T16:59:04;10.80;99.90
22114;DHT22;11223;49.968;9.062;2023-04-01T17:01:52;10.80;99.90
22114;DHT22;11223;49.968;9.062;2023-04-01T17:04:39;10.70;99.90
22114;DHT22;11223;49.968;9.062;2023-04-01T17:12:45;10.50;99.90
22114;DHT22;11223;49.968;9.062;2023-04-01T17:15:21;10.50;99.90
22114;DHT22;11223;49.968;9.062;2023-04-01T17:18:28;10.40;99.90
22114;DHT22;11223;49.968;9.062;2023-04-01T17:27:20;10.30;99.90
22114;DHT22;11223;49.968;9.062;2023-04-01T17:32:40;10.20;99.90
22114;DHT22;11223;49.968;9.062;2023-04-01T17:35:22;10.20;99.90
22114;DHT22;11223;49.968;9.062;2023-04-01T17:54:45;10.00;99.90
22114;DHT22;11223;49.968;9.062;2023-04-01T17:57:30;9.90;99.90
22114;DHT22;11223;49.968;9.062;2023-04-01T18:00:03;9.90;99.90
22114;DHT22;11223;49.968;9.062;2023-04-01T18:24:51;9.70;99.90
22114;DHT22;11223;49.968;9.062;2023-04-01T18:27:40;9.60;99.90
22114;DHT22;11223;49.968;9.062;2023-04-01T18:38:11;9.60;99.90
22114;DHT22;11223;49.968;9.062;2023-04-01T18:41:07;9.50;99.90
22114;DHT22;11223;49.968;9.062;2023-04-01T18:43:48;9.50;99.90
22114;DHT22;11223;49.968;9.062;2023-04-01T18:49:52;9.50;99.90
22114;DHT22;11223;49.968;9.062;2023-04-01T18:52:36;9.50;99.90
22114;DHT22;11223;49.968;9.062;2023-04-01T18:57:51;9.40;99.90
22114;DHT22;11223;49.968;9.062;2023-04-01T19:00:32;9.40;99.90
22114;DHT22;11223;49.968;9.062;2023-04-01T19:05:53;9.40;99.90
22114;DHT22;11223;49.968;9.062;2023-04-01T19:08:27;9.40;99.90
22114;DHT22;11223;49.968;9.062;2023-04-01T19:21:57;9.30;99.90
22114;DHT22;11223;49.968;9.062;2023-04-01T19:27:39;9.30;99.90
22114;DHT22;11223;49.968;9.062;2023-04-01T19:30:17;9.20;99.90
22114;DHT22;11223;49.968;9.062;2023-04-01T19:36:02;9.20;99.90
22114;DHT22;11223;49.968;9.062;2023-04-01T19:38:53;9.20;99.90
22114;DHT22;11223;49.968;9.062;2023-04-01T19:41:26;9.20;99.90
22114;DHT22;11223;49.968;9.062;2023-04-01T19:46:48;9.10;99.90
22114;DHT22;11223;49.968;9.062;2023-04-01T19:49:24;9.10;99.90
22114;DHT22;11223;49.968;9.062;2023-04-01T19:52:23;9.10;99.90
22114;DHT22;11223;49.968;9.062;2023-04-01T19:54:56;9.10;99.90
22114;DHT22;11223;49.968;9.062;2023-04-01T19:57:56;9.10;99.90
22114;DHT22;11223;49.968;9.062;2023-04-01T20:00:34;9.00;99.90
22114;DHT22;11223;49.968;9.062;2023-04-01T20:17:07;8.90;99.90
22114;DHT22;11223;49.968;9.062;2023-04-01T20:25:17;8.70;99.90
22114;DHT22;11223;49.968;9.062;2023-04-01T20:27:51;8.70;99.90
22114;DHT22;11223;49.968;9.062;2023-04-01T20:41:32;8.50;99.90
22114;DHT22;11223;49.968;9.062;2023-04-01T20:44:13;8.50;99.90
22114;DHT22;11223;49.968;9.062;2023-04-01T20:46:48;8.50;99.90
22114;DHT22;11223;49.968;9.062;2023-04-01T20:52:10;8.50;99.90
22114;DHT22;11223;49.968;9.062;2023-04-01T21:03:49;8.60;99.90
22114;DHT22;11223;49.968;9.062;2023-04-01T21:17:58;8.70;99.90
22114;DHT22;11223;49.968;9.062;2023-04-01T21:28:34;8.70;99.90
22114;DHT22;11223;49.968;9.062;2023-04-01T21:33:52;8.70;99.90
22114;DHT22;11223;49.968;9.062;2023-04-01T21:42:26;8.70;99.90
22114;DHT22;11223;49.968;9.062;2023-04-01T21:45:05;8.70;99.90
22114;DHT22;11223;49.968;9.062;2023-04-01T21:48:01;8.70;99.90
22114;DHT22;11223;49.968;9.062;2023-04-01T21:50:47;8.70;99.90
22114;DHT22;11223;49.968;9.062;2023-04-01T21:53:53;8.70;99.90
22114;DHT22;11223;49.968;9.062;2023-04-01T22:04:15;8.60;99.90
22114;DHT22;11223;49.968;9.062;2023-04-01T22:06:49;8.60;99.90
22114;DHT22;11223;49.968;9.062;2023-04-01T22:09:24;8.60;99.90
22114;DHT22;11223;49.968;9.062;2023-04-01T22:12:20;8.60;99.90
22114;DHT22;11223;49.968;9.062;2023-04-01T22:17:38;8.60;99.90
22114;DHT22;11223;49.968;9.062;2023-04-01T22:20:35;8.60;99.90
22114;DHT22;11223;49.968;9.062;2023-04-01T22:23:10;8.60;99.90
22114;DHT22;11223;49.968;9.062;2023-04-01T22:36:51;8.70;99.90
22114;DHT22;11223;49.968;9.062;2023-04-01T22:55:57;8.70;99.90
22114;DHT22;11223;49.968;9.062;2023-04-01T22:58:36;8.70;99.90
22114;DHT22;11223;49.968;9.062;2023-04-01T23:01:10;8.70;99.90
22114;DHT22;11223;49.968;9.062;2023-04-01T23:03:41;8.70;99.90
22114;DHT22;11223;49.968;9.062;2023-04-01T23:06:17;8.70;99.90
22114;DHT22;11223;49.968;9.062;2023-04-01T23:08:55;8.70;99.90
22114;DHT22;11223;49.968;9.062;2023-04-01T23:16:57;8.80;99.90
22114;DHT22;11223;49.968;9.062;2023-04-01T23:19:37;8.80;99.90
22114;DHT22;11223;49.968;9.062;2023-04-01T23:22:29;8.80;99.90
22114;DHT22;11223;49.968;9.062;2023-04-01T23:25:23;8.80;99.90
22114;DHT22;11223;49.968;9.062;2023-04-01T23:28:29;8.80;99.90
22114;DHT22;11223;49.968;9.062;2023-04-01T23:30:57;8.80;99.90
22114;DHT22;11223;49.968;9.062;2023-04-01T23:33:28;8.80;99.90
22114;DHT22;11223;49.968;9.062;2023-04-01T23:36:09;8.80;99.90
22114;DHT22;11223;49.968;9.062;2023-04-01T23:38:41;8.80;99.90
22114;DHT22;11223;49.968;9.062;2023-04-01T23:41:16;8.80;99.90
22114;DHT22;11223;49.968;9.062;2023-04-01T23:43:43;8.80;99.90
22114;DHT22;11223;49.968;9.062;2023-04-01T23:46:11;8.80;99.90
22114;DHT22;11223;49.968;9.062;2023-04-01T23:48:40;8.80;99.90
22114;DHT22;11223;49.968;9.062;2023-04-01T23:51:25;8.80;99.90
22114;DHT22;11223;49.968;9.062;2023-04-01T23:54:02;8.80;99.90
22114;DHT22;11223;49.968;9.062;2023-04-01T23:56:48;8.80;99.90
22114;DHT22;11223;49.968;9.062;2023-04-01T23:59:18;8.80;99.90
